Time;durP1;ratioP1;P1;durP2;ratioP2;P2;SDS_P1;SDS_P2;PMS_P1;PMS_P2;Temp;Humidity;BMP_temperature;BMP_pressure;BME280_temperature;BME280_humidity;BME280_pressure;Samples;Min_cycle;Max_cycle;Signal;HPM_P1;HPM_P2
2023/06/23 10:53:21;;;;;;;26.67;24.67;;;38.80;96.60;;;;;;5183101;23;20113;-93
2023/06/23 10:55:54;;;;;;;28.10;25.15;;;38.80;96.80;;;;;;4944118;28;20079;-92
2023/06/23 10:58:24;;;;;;;28.38;24.83;;;38.70;97.10;;;;;;4928117;29;20147;-92
2023/06/23 11:00:54;;;;;;;27.25;24.95;;;38.80;97.60;;;;;;4933763;29;20023;-92
2023/06/23 11:03:32;;;;;;;27.63;25.25;;;39.00;96.60;;;;;;4927949;29;20101;-92
2023/06/23 11:06:04;;;;;;;27.60;24.88;;;39.10;96.50;;;;;;4907767;29;20075;-93
2023/06/23 11:08:44;;;;;;;27.80;24.92;;;39.10;96.10;;;;;;4929154;29;20062;-92
2023/06/23 11:11:13;;;;;;;28.20;25.27;;;38.90;96.50;;;;;;4937838;29;20166;-92
2023/06/23 11:13:42;;;;;;;27.52;25.38;;;38.90;95.70;;;;;;4931160;29;20039;-91
2023/06/23 11:16:26;;;;;;;26.73;24.27;;;39.10;95.90;;;;;;4936868;29;20028;-94
2023/06/23 11:19:02;;;;;;;30.63;25.52;;;38.70;96.40;;;;;;4932763;29;20492;-94
2023/06/23 11:21:35;;;;;;;30.48;25.77;;;38.30;96.00;;;;;;4933893;29;20043;-93
2023/06/23 11:24:17;;;;;;;26.90;24.20;;;37.80;96.40;;;;;;4936681;29;20037;-91
2023/06/23 11:27:00;;;;;;;27.40;24.88;;;37.60;96.40;;;;;;4928099;29;20023;-92
2023/06/23 11:29:31;;;;;;;28.40;25.13;;;37.40;95.70;;;;;;4909671;29;20028;-94
2023/06/23 11:35:01;;;;;;;27.25;24.80;;;37.70;95.70;;;;;;4905296;29;20131;-91
2023/06/23 11:37:32;;;;;;;27.25;24.95;;;37.40;95.90;;;;;;4905359;29;20414;-94
2023/06/23 11:42:46;;;;;;;27.25;25.02;;;36.90;99.90;;;;;;4968311;29;20107;-93
2023/06/23 11:45:13;;;;;;;26.10;24.20;;;36.80;99.90;;;;;;4935873;29;20035;-93
2023/06/23 11:47:39;;;;;;;26.08;24.13;;;36.30;99.90;;;;;;4936046;29;20024;-92
2023/06/23 11:50:09;;;;;;;26.50;24.17;;;35.80;99.90;;;;;;4931057;29;20086;-95
2023/06/23 11:55:16;;;;;;;26.75;24.55;;;35.40;99.90;;;;;;4928627;29;20044;-94
2023/06/23 11:57:45;;;;;;;26.83;24.90;;;35.30;99.90;;;;;;4898497;29;20036;-93
2023/06/23 12:00:12;;;;;;;27.77;25.70;;;35.30;99.90;;;;;;4902009;29;20499;-92
2023/06/23 12:06:36;;;;;;;26.23;23.90;;;35.70;99.90;;;;;;4871747;29;20129;-94
2023/06/23 12:09:03;;;;;;;25.70;23.60;;;35.30;99.90;;;;;;4833384;29;20128;-92
2023/06/23 12:11:32;;;;;;;26.02;24.15;;;35.00;99.90;;;;;;4832718;29;20045;-92
2023/06/23 12:13:59;;;;;;;27.63;24.88;;;35.20;99.90;;;;;;4833111;29;20034;-93
2023/06/23 12:16:26;;;;;;;25.77;24.02;;;35.40;99.90;;;;;;4848350;29;20042;-90
2023/06/23 12:18:53;;;;;;;26.50;24.35;;;35.30;99.90;;;;;;4847981;29;20080;-91
2023/06/23 12:21:22;;;;;;;26.27;24.38;;;35.00;99.90;;;;;;4863290;29;20030;-90
2023/06/23 12:23:48;;;;;;;26.45;24.63;;;34.90;99.90;;;;;;4831008;29;20555;-91
2023/06/23 12:26:18;;;;;;;26.65;24.35;;;34.70;99.90;;;;;;4814608;29;20033;-90
2023/06/23 12:28:51;;;;;;;27.05;24.35;;;34.60;99.90;;;;;;4814879;29;20034;-90
2023/06/23 12:31:27;;;;;;;25.37;23.60;;;34.70;99.90;;;;;;4829934;29;20042;-91
2023/06/23 12:33:55;;;;;;;25.50;23.55;;;34.80;99.90;;;;;;4845261;29;20034;-89
2023/06/23 12:36:25;;;;;;;24.83;22.88;;;35.00;99.90;;;;;;4835237;29;20037;-90
2023/06/23 12:38:55;;;;;;;25.88;23.50;;;34.80;99.90;;;;;;4849225;29;20453;-90
2023/06/23 12:43:54;;;;;;;25.40;23.30;;;34.90;99.90;;;;;;4863540;29;20071;-94
2023/06/23 12:50:10;;;;;;;;;;;35.10;99.90;;;;;;4888253;29;20041;-93
2023/06/23 12:53:24;;;;;;;24.45;22.65;;;35.30;99.90;;;;;;4878240;29;19934;-93
2023/06/23 12:56:16;;;;;;;24.95;23.05;;;35.20;99.90;;;;;;4859010;29;20050;-93
2023/06/23 12:59:53;;;;;;;24.95;22.85;;;34.80;99.90;;;;;;4837968;29;20070;-93
2023/06/23 14:03:56;;;;;;;24.17;22.27;;;34.60;99.90;;;;;;5710319;23;20146;-94
2023/06/23 14:06:23;;;;;;;23.65;21.85;;;34.40;99.90;;;;;;4924623;29;20542;-94
2023/06/23 14:08:51;;;;;;;23.75;21.83;;;34.50;99.90;;;;;;4941093;29;20345;-94
2023/06/23 14:11:21;;;;;;;23.00;21.45;;;34.30;99.90;;;;;;4925029;29;20079;-94
2023/06/23 14:13:48;;;;;;;24.33;22.17;;;34.10;99.90;;;;;;4937963;29;20028;-94
2023/06/23 14:16:17;;;;;;;22.42;20.80;;;34.00;99.90;;;;;;4905559;29;20122;-94
2023/06/23 14:18:53;;;;;;;23.60;21.70;;;34.20;99.90;;;;;;4905781;29;20040;-94
2023/06/23 14:21:23;;;;;;;24.33;21.98;;;34.30;99.90;;;;;;4917883;23;20052;-94
2023/06/23 14:24:39;;;;;;;23.00;21.35;;;34.40;99.90;;;;;;4902665;29;20033;-95
2023/06/23 14:30:38;;;;;;;23.88;21.98;;;34.30;99.90;;;;;;5145510;23;20100;-94
2023/06/23 14:33:06;;;;;;;24.35;21.80;;;34.50;99.90;;;;;;4905764;29;20040;-93
2023/06/23 14:35:53;;;;;;;24.50;22.52;;;34.60;99.90;;;;;;4908251;29;20032;-94
2023/06/23 14:38:23;;;;;;;25.38;22.80;;;35.20;99.90;;;;;;4906150;29;20071;-95
2023/06/23 14:40:52;;;;;;;25.92;23.85;;;35.70;99.90;;;;;;4890564;29;20112;-93
2023/06/23 14:46:39;;;;;;;27.08;24.35;;;36.30;99.90;;;;;;4963541;23;20056;-96
2023/06/23 14:50:00;;;;;;;;;;;;;;;;;;;;;
2023/06/23 15:13:19;;;;;;;27.65;25.35;;;36.30;99.90;;;;;;4927571;23;20078;-94
2023/06/23 15:15:45;;;;;;;27.17;24.85;;;36.20;99.90;;;;;;4941115;29;20063;-94
2023/06/23 15:18:23;;;;;;;27.35;25.02;;;36.30;99.90;;;;;;4926033;29;20031;-94
2023/06/23 15:20:50;;;;;;;25.80;23.50;;;36.20;99.90;;;;;;4941694;29;20397;-92
2023/06/23 15:23:16;;;;;;;26.10;23.98;;;36.10;99.90;;;;;;4940345;29;20023;-93
2023/06/23 15:25:46;;;;;;;26.50;24.20;;;36.20;99.90;;;;;;4924064;29;20036;-93
2023/06/23 15:28:28;;;;;;;25.92;23.88;;;36.10;99.90;;;;;;4939887;29;20046;-94
2023/06/23 15:30:55;;;;;;;26.67;24.25;;;36.00;99.90;;;;;;4951535;29;20016;-91
2023/06/23 15:33:25;;;;;;;25.80;23.55;;;36.00;99.90;;;;;;4943166;29;20060;-92
2023/06/23 15:35:52;;;;;;;24.92;22.90;;;36.00;99.90;;;;;;4940788;29;20035;-93
2023/06/23 15:38:19;;;;;;;25.63;23.33;;;35.90;99.90;;;;;;4923246;29;20059;-93
2023/06/23 15:40:45;;;;;;;25.58;23.67;;;35.80;99.90;;;;;;4939187;29;20133;-93
2023/06/23 15:43:15;;;;;;;26.50;24.23;;;35.90;99.90;;;;;;4938528;29;20039;-94
2023/06/23 15:45:42;;;;;;;27.02;24.83;;;35.90;99.90;;;;;;4951763;28;20016;-92
2023/06/23 15:48:10;;;;;;;28.85;26.05;;;35.80;99.90;;;;;;4945626;29;20401;-92
2023/06/23 15:50:38;;;;;;;27.17;25.02;;;35.60;99.90;;;;;;4923707;29;20393;-93
2023/06/23 15:53:05;;;;;;;28.70;25.05;;;35.40;99.90;;;;;;4922986;29;20454;-92
2023/06/23 15:55:32;;;;;;;28.45;25.48;;;35.30;99.90;;;;;;4923232;29;20115;-92
2023/06/23 15:57:59;;;;;;;26.85;24.67;;;35.40;99.90;;;;;;4939198;29;20028;-92
2023/06/23 16:00:25;;;;;;;27.30;25.10;;;35.30;99.90;;;;;;4939190;29;20035;-91
2023/06/23 16:02:52;;;;;;;26.02;23.92;;;35.20;99.90;;;;;;4939054;29;20027;-92
2023/06/23 16:05:19;;;;;;;27.27;24.77;;;35.20;99.90;;;;;;4927663;29;20028;-92
2023/06/23 16:07:46;;;;;;;25.95;23.95;;;35.00;99.90;;;;;;4904388;29;20028;-92
2023/06/23 16:10:12;;;;;;;25.58;23.63;;;34.90;99.90;;;;;;4904125;29;20508;-90
2023/06/23 16:12:40;;;;;;;27.27;24.73;;;34.90;99.90;;;;;;4904142;29;20043;-91
2023/06/23 16:15:07;;;;;;;24.92;23.23;;;34.90;99.90;;;;;;4888800;29;20119;-91
2023/06/23 16:17:33;;;;;;;25.40;23.40;;;34.70;99.90;;;;;;4904018;29;20042;-92
2023/06/23 16:19:59;;;;;;;26.10;23.95;;;34.60;99.90;;;;;;4904156;29;20096;-92
2023/06/23 16:22:25;;;;;;;26.35;24.02;;;34.70;99.90;;;;;;4904279;29;20020;-92
2023/06/23 16:24:52;;;;;;;24.80;22.77;;;34.60;99.90;;;;;;4912451;29;20031;-92
2023/06/23 16:27:18;;;;;;;24.90;23.20;;;34.50;99.90;;;;;;4922012;29;20024;-91
2023/06/23 16:29:45;;;;;;;26.30;23.25;;;34.40;99.90;;;;;;4921853;29;20485;-92
2023/06/23 16:32:11;;;;;;;26.23;23.17;;;34.60;99.90;;;;;;4921965;29;20036;-93
2023/06/23 16:34:38;;;;;;;24.55;22.65;;;34.40;99.90;;;;;;4922346;29;20034;-91
2023/06/23 16:37:05;;;;;;;25.33;23.30;;;34.10;99.90;;;;;;4937926;29;20123;-92
2023/06/23 16:39:32;;;;;;;26.10;23.48;;;34.10;99.90;;;;;;4937259;29;20047;-92
2023/06/23 16:42:00;;;;;;;25.65;23.63;;;33.90;99.90;;;;;;4921696;29;20111;-91
2023/06/23 16:44:27;;;;;;;25.27;23.25;;;33.80;99.90;;;;;;4937272;29;20035;-92
2023/06/23 16:46:53;;;;;;;26.45;24.42;;;33.70;99.90;;;;;;4937273;29;20051;-91
2023/06/23 16:49:19;;;;;;;25.45;23.30;;;33.60;99.90;;;;;;4937243;29;20507;-93
2023/06/23 16:51:46;;;;;;;24.08;22.48;;;33.40;99.90;;;;;;4937394;29;20028;-92
2023/06/23 16:54:12;;;;;;;24.45;22.70;;;33.40;99.90;;;;;;4936917;29;20032;-94
2023/06/23 16:56:48;;;;;;;25.25;23.05;;;33.20;99.90;;;;;;4937222;29;20477;-92
2023/06/23 16:59:14;;;;;;;25.65;23.52;;;33.20;99.90;;;;;;4936237;29;20047;-92
2023/06/23 17:01:41;;;;;;;24.88;22.83;;;33.10;99.90;;;;;;4937731;29;20491;-92
2023/06/23 17:04:07;;;;;;;25.40;23.30;;;33.00;99.90;;;;;;4938800;29;20039;-93
2023/06/23 17:06:33;;;;;;;24.80;23.00;;;32.90;99.90;;;;;;4937896;29;20035;-93
2023/06/23 17:09:00;;;;;;;25.48;23.15;;;32.90;99.90;;;;;;4937952;29;20184;-93
2023/06/23 17:11:26;;;;;;;24.90;22.67;;;32.70;99.90;;;;;;4937761;29;20036;-93
2023/06/23 17:13:53;;;;;;;25.25;23.00;;;32.60;99.90;;;;;;4937663;29;20107;-93
2023/06/23 17:16:19;;;;;;;25.35;22.98;;;32.50;99.90;;;;;;4903156;29;20051;-93
2023/06/23 17:18:46;;;;;;;25.75;23.17;;;32.40;99.90;;;;;;4904245;29;20044;-94
2023/06/23 17:21:15;;;;;;;24.33;22.52;;;32.40;99.90;;;;;;4903083;29;20035;-93
2023/06/23 17:23:42;;;;;;;25.50;23.40;;;32.40;99.90;;;;;;4903740;29;20031;-92
2023/06/23 17:26:08;;;;;;;25.92;23.55;;;32.30;99.90;;;;;;4903485;29;20115;-93
2023/06/23 17:28:35;;;;;;;26.05;23.60;;;32.20;99.90;;;;;;4904956;29;20569;-93
2023/06/23 17:31:01;;;;;;;26.08;23.75;;;32.10;99.90;;;;;;4920766;29;20036;-92
2023/06/23 17:33:29;;;;;;;26.48;23.88;;;32.10;99.90;;;;;;4916141;29;20036;-93
2023/06/23 17:35:56;;;;;;;25.63;23.35;;;32.00;99.90;;;;;;4903753;29;20032;-92
2023/06/23 17:38:23;;;;;;;26.10;23.38;;;31.90;99.90;;;;;;4901733;29;20047;-91
2023/06/23 17:40:49;;;;;;;25.25;22.77;;;31.80;99.90;;;;;;4902590;29;20036;-92
2023/06/23 17:43:16;;;;;;;24.15;22.45;;;31.60;99.90;;;;;;4902065;29;20032;-93
2023/06/23 17:45:42;;;;;;;24.00;22.30;;;31.30;99.90;;;;;;4910199;29;20028;-92
2023/06/23 17:48:10;;;;;;;24.48;22.35;;;31.20;99.90;;;;;;4927577;29;20032;-94
2023/06/23 17:50:46;;;;;;;23.88;21.90;;;31.10;99.90;;;;;;4911784;29;20087;-95
2023/06/23 17:53:15;;;;;;;24.85;22.98;;;31.00;99.90;;;;;;4903383;29;20119;-92
2023/06/23 17:56:07;;;;;;;23.48;21.85;;;30.90;99.90;;;;;;4883483;29;20024;-93
2023/06/23 17:58:33;;;;;;;24.70;22.45;;;30.80;99.90;;;;;;4885827;29;20044;-92
2023/06/23 18:01:00;;;;;;;26.00;23.40;;;30.70;99.90;;;;;;4901776;29;20059;-93
2023/06/23 18:03:27;;;;;;;25.25;23.00;;;30.60;99.90;;;;;;4903093;29;20040;-94
2023/06/23 18:05:54;;;;;;;23.70;21.70;;;30.50;99.90;;;;;;4902541;29;20059;-93
2023/06/23 18:08:55;;;;;;;23.10;21.25;;;30.30;99.90;;;;;;4902764;29;20035;-93
2023/06/23 18:11:21;;;;;;;24.45;21.95;;;30.10;99.90;;;;;;4824712;29;20066;-93
2023/06/23 18:14:00;;;;;;;23.08;21.23;;;29.80;99.90;;;;;;4791894;29;20050;-95
2023/06/23 18:16:35;;;;;;;23.33;21.17;;;29.70;99.90;;;;;;4828048;29;20056;-93
2023/06/23 18:22:29;;;;;;;23.70;20.83;;;29.30;99.90;;;;;;4776885;30;20091;-94
2023/06/23 18:25:50;;;;;;;22.25;20.13;;;29.10;99.90;;;;;;4788586;30;20062;-95
2023/06/23 18:28:16;;;;;;;23.23;20.55;;;29.00;99.90;;;;;;4772927;30;20035;-93
2023/06/23 18:30:43;;;;;;;22.23;19.92;;;28.80;99.90;;;;;;4793649;29;20037;-94
2023/06/23 18:33:10;;;;;;;20.83;19.17;;;28.60;99.90;;;;;;4827286;29;20044;-93
2023/06/23 18:35:36;;;;;;;21.55;19.60;;;28.60;99.90;;;;;;4826414;29;20034;-93
2023/06/23 18:38:03;;;;;;;20.67;18.70;;;28.50;99.90;;;;;;4811127;29;20399;-93
2023/06/23 18:40:33;;;;;;;25.55;19.85;;;28.40;99.90;;;;;;4826869;29;20545;-94
2023/06/23 18:42:59;;;;;;;21.13;19.42;;;28.20;99.90;;;;;;4826862;29;20038;-94
2023/06/23 18:45:26;;;;;;;20.73;19.15;;;28.20;99.90;;;;;;4826434;29;20030;-93
2023/06/23 18:47:52;;;;;;;20.95;19.08;;;28.10;99.90;;;;;;4836953;29;20040;-95
2023/06/23 18:50:19;;;;;;;22.55;20.10;;;28.10;99.90;;;;;;4903806;29;20016;-94
2023/06/23 18:55:23;;;;;;;21.10;19.35;;;28.20;99.90;;;;;;4834570;29;20053;-93
2023/06/23 18:57:53;;;;;;;20.77;18.73;;;28.30;99.90;;;;;;4830902;29;20040;-94
2023/06/23 19:00:20;;;;;;;20.08;18.50;;;28.30;99.90;;;;;;4847988;29;20113;-95
2023/06/23 19:02:46;;;;;;;21.40;19.48;;;28.20;99.90;;;;;;4855338;29;20025;-93
2023/06/23 19:05:13;;;;;;;20.02;18.42;;;28.10;99.90;;;;;;4864607;29;20510;-94
2023/06/23 19:07:42;;;;;;;20.38;18.23;;;27.90;99.90;;;;;;4865418;29;20051;-93
2023/06/23 19:10:08;;;;;;;20.30;18.33;;;27.80;99.90;;;;;;4863944;29;20098;-93
2023/06/23 19:12:35;;;;;;;19.75;18.15;;;27.70;99.90;;;;;;4864657;29;20029;-91
2023/06/23 19:15:02;;;;;;;20.92;19.23;;;27.60;99.90;;;;;;4864416;29;20032;-91
2023/06/23 19:17:29;;;;;;;19.92;18.00;;;27.50;99.90;;;;;;4856290;29;20045;-92
2023/06/23 19:19:55;;;;;;;20.85;18.92;;;27.50;99.90;;;;;;4846304;29;20564;-92
2023/06/23 19:22:22;;;;;;;21.10;19.05;;;27.50;99.90;;;;;;4856595;29;20037;-92
2023/06/23 19:24:48;;;;;;;20.00;18.40;;;27.50;99.90;;;;;;4854159;29;20044;-92
2023/06/23 19:27:14;;;;;;;20.90;18.95;;;27.50;99.90;;;;;;4878382;29;20050;-94
2023/06/23 19:29:41;;;;;;;20.45;18.80;;;27.50;99.90;;;;;;4881035;29;20499;-93
2023/06/23 19:32:08;;;;;;;21.10;19.40;;;27.50;99.90;;;;;;4876226;29;20471;-92
2023/06/23 19:34:34;;;;;;;21.00;19.13;;;27.50;99.90;;;;;;4877930;29;20067;-94
2023/06/23 19:37:01;;;;;;;21.75;20.02;;;27.40;99.90;;;;;;4836138;29;20116;-92
2023/06/23 19:39:28;;;;;;;21.75;19.95;;;27.20;99.90;;;;;;4848317;29;20049;-92
2023/06/23 19:41:54;;;;;;;21.90;20.10;;;27.20;99.90;;;;;;4832985;29;20113;-92
2023/06/23 19:44:21;;;;;;;23.33;20.85;;;27.20;99.90;;;;;;4847741;29;20037;-93
2023/06/23 19:46:47;;;;;;;22.85;20.88;;;27.10;99.90;;;;;;4833326;29;20395;-91
2023/06/23 19:49:20;;;;;;;24.65;21.13;;;27.10;99.90;;;;;;4850094;29;20038;-94
2023/06/23 19:51:49;;;;;;;41.25;29.05;;;27.10;99.90;;;;;;4852188;29;20026;-92
2023/06/23 19:54:20;;;;;;;35.35;27.40;;;27.10;99.90;;;;;;4829761;29;20054;-91
2023/06/23 19:56:47;;;;;;;27.80;25.02;;;27.20;99.90;;;;;;4830019;29;20034;-93
2023/06/23 19:59:14;;;;;;;23.80;21.80;;;27.20;99.90;;;;;;4829615;29;20038;-92
2023/06/23 20:01:40;;;;;;;26.85;24.35;;;27.20;99.90;;;;;;4829126;29;20091;-92
2023/06/23 20:04:15;;;;;;;23.38;21.25;;;27.20;99.90;;;;;;4864085;29;20037;-90
2023/06/23 20:06:42;;;;;;;23.70;21.02;;;27.20;99.90;;;;;;4866147;29;20067;-90
2023/06/23 20:09:08;;;;;;;23.15;20.80;;;27.20;99.90;;;;;;4867016;29;20048;-90
2023/06/23 20:11:34;;;;;;;23.52;21.38;;;27.20;99.90;;;;;;4851502;29;20029;-90
2023/06/23 20:14:04;;;;;;;22.15;20.33;;;27.10;99.90;;;;;;4867028;29;20132;-91
2023/06/23 20:16:32;;;;;;;23.58;20.75;;;27.10;99.90;;;;;;4866818;29;20071;-90
2023/06/23 20:18:58;;;;;;;22.27;20.33;;;27.00;99.90;;;;;;4851368;29;20033;-90
2023/06/23 20:21:25;;;;;;;21.95;19.90;;;27.00;99.90;;;;;;4866832;29;20029;-91
2023/06/23 20:23:51;;;;;;;22.67;20.80;;;27.00;99.90;;;;;;4866751;29;20068;-91
2023/06/23 20:26:19;;;;;;;22.20;20.20;;;26.90;99.90;;;;;;4866730;29;20058;-91
2023/06/23 20:28:45;;;;;;;21.42;19.58;;;26.70;99.90;;;;;;4851195;29;20029;-90
2023/06/23 20:31:12;;;;;;;21.27;19.65;;;26.50;99.90;;;;;;4866557;29;20037;-92
2023/06/23 20:33:38;;;;;;;21.95;20.15;;;26.30;99.90;;;;;;4866680;29;20033;-93
2023/06/23 20:36:04;;;;;;;21.67;19.67;;;26.10;99.90;;;;;;4851190;29;20029;-90
2023/06/23 20:38:31;;;;;;;24.70;20.60;;;25.90;99.90;;;;;;4866571;29;20029;-91
2023/06/23 20:40:57;;;;;;;22.20;19.95;;;25.80;99.90;;;;;;4850196;29;20029;-93
2023/06/23 20:43:25;;;;;;;21.58;19.67;;;25.70;99.90;;;;;;4865319;29;20124;-91
2023/06/23 20:45:51;;;;;;;21.35;19.83;;;25.60;99.90;;;;;;4843061;29;20036;-92
2023/06/23 20:48:19;;;;;;;22.45;20.45;;;25.50;99.90;;;;;;4831785;29;20517;-92
2023/06/23 20:50:46;;;;;;;21.77;19.95;;;25.40;99.90;;;;;;4846634;29;20041;-92
2023/06/23 20:53:12;;;;;;;23.08;20.80;;;25.30;99.90;;;;;;4843029;29;20487;-92
2023/06/23 20:55:39;;;;;;;22.38;20.10;;;25.40;99.90;;;;;;4884031;29;20566;-92
2023/06/23 20:58:06;;;;;;;21.65;19.65;;;25.30;99.90;;;;;;4867984;29;20090;-91
2023/06/23 21:00:33;;;;;;;23.65;19.35;;;25.10;99.90;;;;;;4883551;29;20056;-91
2023/06/23 21:03:00;;;;;;;20.17;18.38;;;25.10;99.90;;;;;;4857280;29;20036;-92
2023/06/23 21:05:26;;;;;;;20.58;18.77;;;25.00;99.90;;;;;;4865305;29;20025;-91
2023/06/23 21:07:53;;;;;;;19.98;18.38;;;25.00;99.90;;;;;;4865009;29;20068;-93
2023/06/23 21:10:19;;;;;;;19.77;18.05;;;25.10;99.90;;;;;;4852261;29;20029;-91
2023/06/23 21:12:45;;;;;;;20.10;18.17;;;25.00;99.90;;;;;;4865532;29;20033;-92
2023/06/23 21:15:12;;;;;;;19.98;18.27;;;25.10;99.90;;;;;;4865205;29;20025;-92
2023/06/23 21:17:38;;;;;;;19.48;17.85;;;24.90;99.90;;;;;;4865528;29;20037;-90
2023/06/23 21:20:06;;;;;;;21.50;18.45;;;24.90;99.90;;;;;;4866188;29;20052;-92
2023/06/23 21:22:32;;;;;;;20.80;18.83;;;24.90;99.90;;;;;;4867569;29;20085;-92
2023/06/23 21:25:02;;;;;;;20.45;18.70;;;24.80;99.90;;;;;;4864736;29;20022;-91
2023/06/23 21:27:28;;;;;;;19.98;18.08;;;24.70;99.90;;;;;;4881057;29;20057;-91
2023/06/23 21:29:55;;;;;;;19.27;17.38;;;24.70;99.90;;;;;;4871807;29;20022;-93
2023/06/23 21:32:23;;;;;;;20.13;18.00;;;24.70;99.90;;;;;;4863407;29;20452;-93
2023/06/23 21:34:49;;;;;;;20.83;18.88;;;24.70;99.90;;;;;;4868646;29;20053;-91
2023/06/23 21:37:16;;;;;;;21.08;16.95;;;24.70;99.90;;;;;;4884325;29;20032;-93
2023/06/23 21:39:42;;;;;;;19.38;17.67;;;24.80;99.90;;;;;;4884287;29;20032;-93
2023/06/23 21:42:09;;;;;;;20.42;16.85;;;24.90;99.90;;;;;;4884355;29;20134;-91
2023/06/23 21:44:36;;;;;;;19.92;17.75;;;24.80;99.90;;;;;;4866930;29;20029;-91
2023/06/23 21:47:05;;;;;;;22.15;16.67;;;24.80;99.90;;;;;;4866557;29;20039;-92
2023/06/23 21:49:36;;;;;;;20.40;18.27;;;24.70;99.90;;;;;;4866745;29;20456;-93
2023/06/23 21:52:04;;;;;;;18.27;16.48;;;24.70;99.90;;;;;;4866171;29;20119;-94
2023/06/23 21:54:31;;;;;;;17.75;16.08;;;24.60;99.90;;;;;;4865264;29;20056;-92
2023/06/23 21:56:59;;;;;;;17.95;16.30;;;24.60;99.90;;;;;;4864954;29;20120;-92
2023/06/23 21:59:26;;;;;;;17.35;15.93;;;24.40;99.90;;;;;;4864109;29;20037;-92
2023/06/23 22:01:52;;;;;;;17.35;15.70;;;24.40;99.90;;;;;;4864109;29;20039;-94
2023/06/23 22:04:19;;;;;;;16.55;15.00;;;24.40;99.90;;;;;;4878660;29;20068;-91
2023/06/23 22:06:46;;;;;;;16.70;14.98;;;24.30;99.90;;;;;;4860846;29;20411;-91
2023/06/23 22:09:12;;;;;;;16.08;14.02;;;24.40;99.90;;;;;;4861091;29;20030;-91
2023/06/23 22:11:38;;;;;;;16.05;14.75;;;24.40;99.90;;;;;;4860903;29;20066;-92
2023/06/23 22:14:05;;;;;;;16.98;15.25;;;24.40;99.90;;;;;;4861484;29;20079;-93
2023/06/23 22:16:31;;;;;;;16.55;14.93;;;24.40;99.90;;;;;;4860872;29;20037;-93
2023/06/23 22:18:58;;;;;;;18.40;14.35;;;24.40;99.90;;;;;;4860695;29;20120;-92
2023/06/23 22:21:24;;;;;;;15.38;13.27;;;24.40;99.90;;;;;;4860829;29;20033;-93
2023/06/23 22:23:51;;;;;;;14.13;12.77;;;24.40;99.90;;;;;;4849721;29;20021;-92
2023/06/23 22:26:17;;;;;;;13.68;12.45;;;24.30;99.90;;;;;;4882477;29;20047;-94
2023/06/23 22:28:44;;;;;;;13.90;12.60;;;24.20;99.90;;;;;;4882632;29;20028;-93
2023/06/23 22:31:10;;;;;;;14.13;12.80;;;24.20;99.90;;;;;;4867963;29;20036;-92
2023/06/23 22:33:36;;;;;;;13.27;12.07;;;24.30;99.90;;;;;;4867757;29;20025;-94
2023/06/23 22:36:03;;;;;;;13.68;12.27;;;24.40;99.90;;;;;;4883396;29;20037;-92
2023/06/23 22:38:29;;;;;;;12.60;11.40;;;24.50;99.90;;;;;;4867851;29;20103;-92
2023/06/23 22:40:56;;;;;;;15.45;12.65;;;24.50;99.90;;;;;;4868073;29;20093;-92
2023/06/23 22:43:22;;;;;;;13.40;12.20;;;24.40;99.90;;;;;;4883190;29;20048;-95
2023/06/23 22:45:49;;;;;;;14.13;12.95;;;24.40;99.90;;;;;;4883202;29;20033;-92
2023/06/23 22:48:15;;;;;;;13.82;12.43;;;24.30;99.90;;;;;;4883398;29;20037;-93
2023/06/23 22:50:42;;;;;;;13.80;12.50;;;24.20;99.90;;;;;;4867725;29;20103;-92
2023/06/23 22:53:08;;;;;;;14.07;12.65;;;24.10;99.90;;;;;;4879593;29;20033;-94
2023/06/23 22:55:35;;;;;;;13.35;12.15;;;24.00;99.90;;;;;;4860432;29;20096;-92
2023/06/23 22:58:02;;;;;;;15.60;11.90;;;24.00;99.90;;;;;;4886988;29;20538;-93
2023/06/23 23:00:31;;;;;;;13.32;12.20;;;24.10;99.90;;;;;;4874421;29;20057;-92
2023/06/23 23:02:59;;;;;;;13.85;12.40;;;24.10;99.90;;;;;;4885126;29;20047;-92
2023/06/23 23:05:25;;;;;;;13.25;12.02;;;24.00;99.90;;;;;;4871458;29;20028;-92
2023/06/23 23:07:54;;;;;;;14.45;12.40;;;23.90;99.90;;;;;;4886781;29;20414;-94
2023/06/23 23:10:21;;;;;;;13.05;12.07;;;23.90;99.90;;;;;;4887306;29;20096;-94
2023/06/23 23:12:47;;;;;;;14.52;13.07;;;23.90;99.90;;;;;;4886751;29;20541;-92
2023/06/23 23:15:15;;;;;;;14.10;12.80;;;23.80;99.90;;;;;;4886229;29;20443;-94
2023/06/23 23:17:42;;;;;;;15.23;12.68;;;23.90;99.90;;;;;;4885658;29;20032;-93
2023/06/23 23:20:12;;;;;;;15.27;11.98;;;23.80;99.90;;;;;;4882233;29;20056;-93
2023/06/23 23:22:39;;;;;;;13.60;11.85;;;23.80;99.90;;;;;;4869682;29;20037;-92
2023/06/23 23:25:07;;;;;;;14.05;12.00;;;23.90;99.90;;;;;;4892405;29;20017;-92
2023/06/23 23:27:38;;;;;;;14.50;12.85;;;24.10;99.90;;;;;;4896554;29;20036;-93
2023/06/23 23:30:08;;;;;;;12.88;11.88;;;24.00;99.90;;;;;;4870591;29;20402;-95
2023/06/23 23:32:41;;;;;;;13.15;11.68;;;23.90;99.90;;;;;;4870799;29;20037;-92
2023/06/23 23:35:12;;;;;;;16.58;13.40;;;23.90;99.90;;;;;;4869938;29;20056;-93
2023/06/23 23:37:39;;;;;;;15.85;12.80;;;23.80;99.90;;;;;;4885239;29;20041;-93
2023/06/23 23:40:11;;;;;;;14.10;12.65;;;23.80;99.90;;;;;;4869616;29;20040;-92
2023/06/23 23:42:39;;;;;;;13.43;12.18;;;23.80;99.90;;;;;;4885422;29;20115;-92
2023/06/23 23:45:06;;;;;;;19.08;12.38;;;23.80;99.90;;;;;;4885427;29;20032;-93
2023/06/23 23:47:32;;;;;;;16.83;12.52;;;23.80;99.90;;;;;;4885621;29;20506;-93
2023/06/23 23:49:59;;;;;;;13.70;12.25;;;23.90;99.90;;;;;;4870373;29;20033;-92
2023/06/23 23:52:29;;;;;;;13.07;12.02;;;23.90;99.90;;;;;;4895547;29;20044;-93
2023/06/23 23:55:02;;;;;;;12.60;11.55;;;23.90;99.90;;;;;;4887012;29;20056;-92
2023/06/23 23:57:29;;;;;;;13.15;12.00;;;23.80;99.90;;;;;;4888390;29;20052;-94
2023/06/23 23:59:56;;;;;;;17.42;12.52;;;23.80;99.90;;;;;;4869438;29;20045;-92
